sensor_id;sensor_type;location;lat;lon;timestamp;P1;durP1;ratioP1;P2;durP2;ratioP2
4084;SDS011;2057;50.858;6.572;2023-04-01T00:01:14;2.57;;;1.43;;
4084;SDS011;2057;50.858;6.572;2023-04-01T00:03:41;2.70;;;1.00;;
4084;SDS011;2057;50.858;6.572;2023-04-01T00:06:16;2.80;;;1.30;;
4084;SDS011;2057;50.858;6.572;2023-04-01T00:08:43;3.20;;;1.10;;
4084;SDS011;2057;50.858;6.572;2023-04-01T00:11:09;1.67;;;1.00;;
4084;SDS011;2057;50.858;6.572;2023-04-01T00:13:35;6.07;;;1.70;;
4084;SDS011;2057;50.858;6.572;2023-04-01T00:16:01;1.30;;;0.90;;
4084;SDS011;2057;50.858;6.572;2023-04-01T00:18:27;1.87;;;1.00;;
4084;SDS011;2057;50.858;6.572;2023-04-01T00:20:55;3.13;;;0.87;;
4084;SDS011;2057;50.858;6.572;2023-04-01T00:23:21;6.93;;;1.03;;
4084;SDS011;2057;50.858;6.572;2023-04-01T00:25:46;1.10;;;0.90;;
4084;SDS011;2057;50.858;6.572;2023-04-01T00:28:13;1.83;;;1.17;;
4084;SDS011;2057;50.858;6.572;2023-04-01T00:30:40;2.30;;;0.90;;
4084;SDS011;2057;50.858;6.572;2023-04-01T00:33:05;4.13;;;0.90;;
4084;SDS011;2057;50.858;6.572;2023-04-01T00:35:31;3.97;;;0.97;;
4084;SDS011;2057;50.858;6.572;2023-04-01T00:37:57;3.80;;;1.10;;
4084;SDS011;2057;50.858;6.572;2023-04-01T00:40:24;7.13;;;1.27;;
4084;SDS011;2057;50.858;6.572;2023-04-01T00:42:57;4.20;;;1.00;;
4084;SDS011;2057;50.858;6.572;2023-04-01T00:47:54;3.20;;;1.20;;
4084;SDS011;2057;50.858;6.572;2023-04-01T00:50:21;2.93;;;1.03;;
4084;SDS011;2057;50.858;6.572;2023-04-01T00:52:52;3.90;;;0.93;;
4084;SDS011;2057;50.858;6.572;2023-04-01T00:55:18;4.33;;;1.30;;
4084;SDS011;2057;50.858;6.572;2023-04-01T00:57:46;1.73;;;0.70;;
4084;SDS011;2057;50.858;6.572;2023-04-01T01:00:13;3.20;;;1.00;;
4084;SDS011;2057;50.858;6.572;2023-04-01T01:02:41;10.10;;;1.00;;
4084;SDS011;2057;50.858;6.572;2023-04-01T01:05:11;2.93;;;1.17;;
4084;SDS011;2057;50.858;6.572;2023-04-01T01:15:20;0.80;;;0.80;;
4084;SDS011;2057;50.858;6.572;2023-04-01T01:32:03;1.27;;;1.00;;
4084;SDS011;2057;50.858;6.572;2023-04-01T01:37:16;3.40;;;1.07;;
4084;SDS011;2057;50.858;6.572;2023-04-01T01:39:44;1.93;;;1.20;;
4084;SDS011;2057;50.858;6.572;2023-04-01T01:42:15;1.83;;;0.80;;
4084;SDS011;2057;50.858;6.572;2023-04-01T01:44:43;2.30;;;0.80;;
4084;SDS011;2057;50.858;6.572;2023-04-01T01:47:13;0.90;;;0.70;;
4084;SDS011;2057;50.858;6.572;2023-04-01T01:49:40;1.33;;;1.10;;
4084;SDS011;2057;50.858;6.572;2023-04-01T01:52:10;3.43;;;0.97;;
4084;SDS011;2057;50.858;6.572;2023-04-01T01:54:46;1.07;;;0.83;;
4084;SDS011;2057;50.858;6.572;2023-04-01T01:57:15;1.90;;;1.07;;
4084;SDS011;2057;50.858;6.572;2023-04-01T01:59:44;3.13;;;0.90;;
4084;SDS011;2057;50.858;6.572;2023-04-01T02:02:12;1.40;;;0.73;;
4084;SDS011;2057;50.858;6.572;2023-04-01T02:04:39;0.70;;;0.70;;
4084;SDS011;2057;50.858;6.572;2023-04-01T02:07:10;3.43;;;0.93;;
4084;SDS011;2057;50.858;6.572;2023-04-01T02:09:57;1.27;;;0.80;;
4084;SDS011;2057;50.858;6.572;2023-04-01T02:12:22;0.67;;;0.67;;
4084;SDS011;2057;50.858;6.572;2023-04-01T02:14:57;1.00;;;0.73;;
4084;SDS011;2057;50.858;6.572;2023-04-01T02:17:34;1.50;;;0.80;;
4084;SDS011;2057;50.858;6.572;2023-04-01T02:20:06;4.33;;;0.90;;
4084;SDS011;2057;50.858;6.572;2023-04-01T02:22:37;2.80;;;0.70;;
4084;SDS011;2057;50.858;6.572;2023-04-01T02:25:14;2.70;;;0.80;;
4084;SDS011;2057;50.858;6.572;2023-04-01T02:27:43;1.17;;;0.70;;
4084;SDS011;2057;50.858;6.572;2023-04-01T02:30:11;0.83;;;0.60;;
4084;SDS011;2057;50.858;6.572;2023-04-01T02:32:38;1.63;;;0.80;;
4084;SDS011;2057;50.858;6.572;2023-04-01T02:35:08;1.70;;;0.93;;
4084;SDS011;2057;50.858;6.572;2023-04-01T02:37:37;0.70;;;0.70;;
4084;SDS011;2057;50.858;6.572;2023-04-01T02:40:07;1.37;;;0.77;;
4084;SDS011;2057;50.858;6.572;2023-04-01T02:42:35;0.70;;;0.70;;
4084;SDS011;2057;50.858;6.572;2023-04-01T02:45:02;1.37;;;0.97;;
4084;SDS011;2057;50.858;6.572;2023-04-01T02:47:28;4.07;;;0.83;;
4084;SDS011;2057;50.858;6.572;2023-04-01T02:49:54;1.83;;;0.80;;
4084;SDS011;2057;50.858;6.572;2023-04-01T02:52:23;2.87;;;0.80;;
4084;SDS011;2057;50.858;6.572;2023-04-01T02:54:49;6.00;;;0.70;;
4084;SDS011;2057;50.858;6.572;2023-04-01T02:57:14;1.07;;;0.70;;
4084;SDS011;2057;50.858;6.572;2023-04-01T02:59:40;0.80;;;0.70;;
4084;SDS011;2057;50.858;6.572;2023-04-01T03:02:05;0.70;;;0.70;;
4084;SDS011;2057;50.858;6.572;2023-04-01T03:04:31;4.17;;;0.70;;
4084;SDS011;2057;50.858;6.572;2023-04-01T03:06:57;0.70;;;0.70;;
4084;SDS011;2057;50.858;6.572;2023-04-01T03:09:23;1.80;;;0.80;;
4084;SDS011;2057;50.858;6.572;2023-04-01T03:11:48;0.70;;;0.70;;
4084;SDS011;2057;50.858;6.572;2023-04-01T03:14:13;2.17;;;0.80;;
4084;SDS011;2057;50.858;6.572;2023-04-01T03:16:39;2.17;;;0.70;;
4084;SDS011;2057;50.858;6.572;2023-04-01T03:19:04;0.70;;;0.70;;
4084;SDS011;2057;50.858;6.572;2023-04-01T03:21:30;0.70;;;0.70;;
4084;SDS011;2057;50.858;6.572;2023-04-01T03:23:55;1.63;;;0.90;;
4084;SDS011;2057;50.858;6.572;2023-04-01T03:26:21;1.37;;;0.77;;
4084;SDS011;2057;50.858;6.572;2023-04-01T03:28:46;0.60;;;0.60;;
4084;SDS011;2057;50.858;6.572;2023-04-01T03:31:12;0.60;;;0.60;;
4084;SDS011;2057;50.858;6.572;2023-04-01T03:33:38;0.70;;;0.70;;
4084;SDS011;2057;50.858;6.572;2023-04-01T03:36:03;0.70;;;0.70;;
4084;SDS011;2057;50.858;6.572;2023-04-01T03:38:31;0.93;;;0.80;;
4084;SDS011;2057;50.858;6.572;2023-04-01T03:41:00;0.77;;;0.73;;
4084;SDS011;2057;50.858;6.572;2023-04-01T03:43:26;0.60;;;0.60;;
4084;SDS011;2057;50.858;6.572;2023-04-01T03:45:51;0.90;;;0.70;;
4084;SDS011;2057;50.858;6.572;2023-04-01T03:48:17;1.90;;;0.80;;
4084;SDS011;2057;50.858;6.572;2023-04-01T03:50:43;0.70;;;0.60;;
4084;SDS011;2057;50.858;6.572;2023-04-01T03:53:10;2.03;;;0.80;;
4084;SDS011;2057;50.858;6.572;2023-04-01T03:55:35;0.70;;;0.60;;
4084;SDS011;2057;50.858;6.572;2023-04-01T03:58:01;0.60;;;0.60;;
4084;SDS011;2057;50.858;6.572;2023-04-01T04:00:28;1.17;;;0.77;;
4084;SDS011;2057;50.858;6.572;2023-04-01T04:02:54;0.87;;;0.60;;
4084;SDS011;2057;50.858;6.572;2023-04-01T04:05:21;1.27;;;0.77;;
4084;SDS011;2057;50.858;6.572;2023-04-01T04:07:50;2.63;;;0.70;;
4084;SDS011;2057;50.858;6.572;2023-04-01T04:10:16;7.03;;;0.67;;
4084;SDS011;2057;50.858;6.572;2023-04-01T04:12:42;0.80;;;0.70;;
4084;SDS011;2057;50.858;6.572;2023-04-01T04:15:07;1.77;;;0.90;;
4084;SDS011;2057;50.858;6.572;2023-04-01T04:17:36;2.73;;;0.70;;
4084;SDS011;2057;50.858;6.572;2023-04-01T04:20:01;1.33;;;0.80;;
4084;SDS011;2057;50.858;6.572;2023-04-01T04:22:27;1.70;;;0.60;;
4084;SDS011;2057;50.858;6.572;2023-04-01T04:24:54;0.70;;;0.60;;
4084;SDS011;2057;50.858;6.572;2023-04-01T04:27:22;0.70;;;0.70;;
4084;SDS011;2057;50.858;6.572;2023-04-01T04:29:47;4.43;;;0.90;;
4084;SDS011;2057;50.858;6.572;2023-04-01T04:32:13;0.77;;;0.77;;
4084;SDS011;2057;50.858;6.572;2023-04-01T04:34:38;0.93;;;0.70;;
4084;SDS011;2057;50.858;6.572;2023-04-01T04:37:03;0.87;;;0.70;;
4084;SDS011;2057;50.858;6.572;2023-04-01T04:39:29;0.70;;;0.70;;
4084;SDS011;2057;50.858;6.572;2023-04-01T04:41:55;1.67;;;0.90;;
4084;SDS011;2057;50.858;6.572;2023-04-01T04:44:20;0.93;;;0.77;;
4084;SDS011;2057;50.858;6.572;2023-04-01T04:46:45;1.27;;;0.70;;
4084;SDS011;2057;50.858;6.572;2023-04-01T04:49:11;2.43;;;0.90;;
4084;SDS011;2057;50.858;6.572;2023-04-01T04:51:36;1.17;;;0.90;;
4084;SDS011;2057;50.858;6.572;2023-04-01T04:54:03;1.03;;;0.77;;
4084;SDS011;2057;50.858;6.572;2023-04-01T04:56:28;2.50;;;1.00;;
4084;SDS011;2057;50.858;6.572;2023-04-01T04:58:54;0.73;;;0.73;;
4084;SDS011;2057;50.858;6.572;2023-04-01T05:01:21;3.03;;;0.97;;
4084;SDS011;2057;50.858;6.572;2023-04-01T05:03:47;0.87;;;0.80;;
4084;SDS011;2057;50.858;6.572;2023-04-01T05:06:15;1.27;;;0.80;;
4084;SDS011;2057;50.858;6.572;2023-04-01T05:08:41;1.53;;;0.90;;
4084;SDS011;2057;50.858;6.572;2023-04-01T05:11:11;0.70;;;0.70;;
4084;SDS011;2057;50.858;6.572;2023-04-01T05:13:39;1.57;;;0.80;;
4084;SDS011;2057;50.858;6.572;2023-04-01T05:16:14;1.80;;;1.10;;
4084;SDS011;2057;50.858;6.572;2023-04-01T05:18:46;0.70;;;0.70;;
4084;SDS011;2057;50.858;6.572;2023-04-01T05:21:12;1.20;;;0.83;;
4084;SDS011;2057;50.858;6.572;2023-04-01T05:23:41;1.10;;;1.00;;
4084;SDS011;2057;50.858;6.572;2023-04-01T05:26:09;2.80;;;1.00;;
4084;SDS011;2057;50.858;6.572;2023-04-01T05:28:37;2.10;;;0.73;;
4084;SDS011;2057;50.858;6.572;2023-04-01T05:31:03;1.90;;;0.90;;
4084;SDS011;2057;50.858;6.572;2023-04-01T05:33:30;2.70;;;1.17;;
4084;SDS011;2057;50.858;6.572;2023-04-01T05:35:56;1.37;;;0.90;;
4084;SDS011;2057;50.858;6.572;2023-04-01T05:38:22;1.10;;;1.00;;
4084;SDS011;2057;50.858;6.572;2023-04-01T05:40:47;3.17;;;1.10;;
4084;SDS011;2057;50.858;6.572;2023-04-01T05:43:13;1.00;;;1.00;;
4084;SDS011;2057;50.858;6.572;2023-04-01T05:45:38;1.80;;;1.10;;
4084;SDS011;2057;50.858;6.572;2023-04-01T05:48:04;1.73;;;1.00;;
4084;SDS011;2057;50.858;6.572;2023-04-01T05:50:29;2.07;;;1.20;;
4084;SDS011;2057;50.858;6.572;2023-04-01T05:52:55;3.80;;;0.90;;
4084;SDS011;2057;50.858;6.572;2023-04-01T05:55:20;2.10;;;1.00;;
4084;SDS011;2057;50.858;6.572;2023-04-01T05:57:46;1.30;;;0.90;;
4084;SDS011;2057;50.858;6.572;2023-04-01T06:00:13;1.23;;;1.10;;
4084;SDS011;2057;50.858;6.572;2023-04-01T06:02:39;6.97;;;1.03;;
4084;SDS011;2057;50.858;6.572;2023-04-01T06:05:20;1.53;;;1.10;;
4084;SDS011;2057;50.858;6.572;2023-04-01T06:07:48;1.97;;;1.20;;
4084;SDS011;2057;50.858;6.572;2023-04-01T06:10:18;1.83;;;1.13;;
4084;SDS011;2057;50.858;6.572;2023-04-01T06:13:03;3.27;;;1.57;;
4084;SDS011;2057;50.858;6.572;2023-04-01T06:15:41;3.23;;;1.57;;
4084;SDS011;2057;50.858;6.572;2023-04-01T06:18:29;3.87;;;1.43;;
4084;SDS011;2057;50.858;6.572;2023-04-01T06:24:17;2.57;;;2.13;;
4084;SDS011;2057;50.858;6.572;2023-04-01T06:38:16;2.40;;;1.80;;
4084;SDS011;2057;50.858;6.572;2023-04-01T06:43:13;6.77;;;1.90;;
4084;SDS011;2057;50.858;6.572;2023-04-01T06:51:02;1.50;;;1.40;;
4084;SDS011;2057;50.858;6.572;2023-04-01T06:54:24;2.10;;;1.57;;
4084;SDS011;2057;50.858;6.572;2023-04-01T06:56:42;4.33;;;1.67;;
4084;SDS011;2057;50.858;6.572;2023-04-01T06:59:19;1.87;;;1.50;;
4084;SDS011;2057;50.858;6.572;2023-04-01T07:02:01;1.57;;;1.47;;
4084;SDS011;2057;50.858;6.572;2023-04-01T07:04:39;5.43;;;2.50;;
4084;SDS011;2057;50.858;6.572;2023-04-01T07:07:11;1.67;;;1.30;;
4084;SDS011;2057;50.858;6.572;2023-04-01T07:09:43;3.33;;;1.33;;
4084;SDS011;2057;50.858;6.572;2023-04-01T07:12:27;5.30;;;1.50;;
4084;SDS011;2057;50.858;6.572;2023-04-01T07:14:54;2.00;;;1.53;;
4084;SDS011;2057;50.858;6.572;2023-04-01T07:17:25;4.63;;;2.20;;
4084;SDS011;2057;50.858;6.572;2023-04-01T07:19:56;1.73;;;1.60;;
4084;SDS011;2057;50.858;6.572;2023-04-01T07:22:47;1.70;;;1.53;;
4084;SDS011;2057;50.858;6.572;2023-04-01T07:28:05;3.00;;;1.30;;
4084;SDS011;2057;50.858;6.572;2023-04-01T07:30:43;3.13;;;1.67;;
4084;SDS011;2057;50.858;6.572;2023-04-01T07:33:33;1.37;;;1.23;;
4084;SDS011;2057;50.858;6.572;2023-04-01T07:47:12;3.03;;;1.20;;
4084;SDS011;2057;50.858;6.572;2023-04-01T07:57:43;1.87;;;1.20;;
4084;SDS011;2057;50.858;6.572;2023-04-01T08:00:22;1.90;;;0.93;;
4084;SDS011;2057;50.858;6.572;2023-04-01T08:06:11;0.87;;;0.80;;
4084;SDS011;2057;50.858;6.572;2023-04-01T08:08:43;1.87;;;1.50;;
4084;SDS011;2057;50.858;6.572;2023-04-01T08:11:27;1.23;;;1.10;;
4084;SDS011;2057;50.858;6.572;2023-04-01T08:17:05;1.53;;;1.20;;
4084;SDS011;2057;50.858;6.572;2023-04-01T08:22:10;3.50;;;1.27;;
4084;SDS011;2057;50.858;6.572;2023-04-01T08:24:44;1.33;;;0.90;;
4084;SDS011;2057;50.858;6.572;2023-04-01T08:27:21;2.23;;;2.03;;
4084;SDS011;2057;50.858;6.572;2023-04-01T08:29:59;1.97;;;1.40;;
4084;SDS011;2057;50.858;6.572;2023-04-01T08:32:36;2.80;;;1.60;;
4084;SDS011;2057;50.858;6.572;2023-04-01T08:37:38;2.10;;;1.40;;
4084;SDS011;2057;50.858;6.572;2023-04-01T08:45:56;5.67;;;1.60;;
4084;SDS011;2057;50.858;6.572;2023-04-01T09:04:47;1.70;;;1.40;;
4084;SDS011;2057;50.858;6.572;2023-04-01T09:07:40;1.00;;;1.00;;
4084;SDS011;2057;50.858;6.572;2023-04-01T09:10:32;1.80;;;1.40;;
4084;SDS011;2057;50.858;6.572;2023-04-01T09:35:24;1.30;;;1.20;;
4084;SDS011;2057;50.858;6.572;2023-04-01T09:40:58;1.87;;;1.70;;
4084;SDS011;2057;50.858;6.572;2023-04-01T09:49:11;4.13;;;1.80;;
4084;SDS011;2057;50.858;6.572;2023-04-01T10:00:29;1.93;;;1.70;;
4084;SDS011;2057;50.858;6.572;2023-04-01T10:08:41;1.90;;;1.70;;
4084;SDS011;2057;50.858;6.572;2023-04-01T10:14:31;1.93;;;1.23;;
4084;SDS011;2057;50.858;6.572;2023-04-01T10:23:27;4.50;;;1.60;;
4084;SDS011;2057;50.858;6.572;2023-04-01T10:36:52;1.90;;;1.27;;
4084;SDS011;2057;50.858;6.572;2023-04-01T10:46:14;1.50;;;1.40;;
4084;SDS011;2057;50.858;6.572;2023-04-01T10:49:28;1.10;;;1.10;;
4084;SDS011;2057;50.858;6.572;2023-04-01T10:52:21;1.30;;;1.20;;
4084;SDS011;2057;50.858;6.572;2023-04-01T10:55:32;5.23;;;2.80;;
4084;SDS011;2057;50.858;6.572;2023-04-01T11:01:02;2.17;;;1.57;;
4084;SDS011;2057;50.858;6.572;2023-04-01T11:41:35;1.40;;;1.13;;
4084;SDS011;2057;50.858;6.572;2023-04-01T11:52:28;3.30;;;1.43;;
4084;SDS011;2057;50.858;6.572;2023-04-01T12:00:35;1.43;;;1.33;;
4084;SDS011;2057;50.858;6.572;2023-04-01T12:06:05;1.80;;;1.20;;
4084;SDS011;2057;50.858;6.572;2023-04-01T12:09:02;2.90;;;1.53;;
4084;SDS011;2057;50.858;6.572;2023-04-01T12:14:13;2.60;;;1.63;;
4084;SDS011;2057;50.858;6.572;2023-04-01T12:26:59;1.80;;;1.70;;
4084;SDS011;2057;50.858;6.572;2023-04-01T12:38:28;3.00;;;2.40;;
4084;SDS011;2057;50.858;6.572;2023-04-01T12:41:08;2.60;;;2.40;;
4084;SDS011;2057;50.858;6.572;2023-04-01T12:52:37;2.67;;;2.37;;
4084;SDS011;2057;50.858;6.572;2023-04-01T13:17:29;2.80;;;1.53;;
4084;SDS011;2057;50.858;6.572;2023-04-01T13:23:18;2.20;;;2.00;;
4084;SDS011;2057;50.858;6.572;2023-04-01T13:28:29;2.43;;;2.23;;
4084;SDS011;2057;50.858;6.572;2023-04-01T13:31:09;1.60;;;1.50;;
4084;SDS011;2057;50.858;6.572;2023-04-01T13:34:06;2.40;;;2.20;;
4084;SDS011;2057;50.858;6.572;2023-04-01T13:47:40;13.07;;;6.97;;
4084;SDS011;2057;50.858;6.572;2023-04-01T14:01:47;33.10;;;16.93;;
4084;SDS011;2057;50.858;6.572;2023-04-01T14:13:18;1.93;;;1.70;;
4084;SDS011;2057;50.858;6.572;2023-04-01T14:33:30;2.40;;;1.60;;
4084;SDS011;2057;50.858;6.572;2023-04-01T14:38:33;1.43;;;1.33;;
4084;SDS011;2057;50.858;6.572;2023-04-01T14:41:15;1.73;;;1.63;;
4084;SDS011;2057;50.858;6.572;2023-04-01T14:49:05;1.87;;;1.77;;
4084;SDS011;2057;50.858;6.572;2023-04-01T14:51:43;3.60;;;3.10;;
4084;SDS011;2057;50.858;6.572;2023-04-01T14:56:36;8.27;;;7.47;;
4084;SDS011;2057;50.858;6.572;2023-04-01T14:59:09;2.00;;;1.90;;
4084;SDS011;2057;50.858;6.572;2023-04-01T15:01:46;2.63;;;1.97;;
4084;SDS011;2057;50.858;6.572;2023-04-01T15:33:08;2.43;;;2.23;;
4084;SDS011;2057;50.858;6.572;2023-04-01T15:35:41;2.67;;;2.47;;
4084;SDS011;2057;50.858;6.572;2023-04-01T15:41:18;3.70;;;2.20;;
4084;SDS011;2057;50.858;6.572;2023-04-01T15:43:59;2.73;;;2.50;;
4084;SDS011;2057;50.858;6.572;2023-04-01T15:49:20;4.20;;;2.10;;
4084;SDS011;2057;50.858;6.572;2023-04-01T16:00:32;6.17;;;2.93;;
4084;SDS011;2057;50.858;6.572;2023-04-01T16:12:18;6.50;;;2.30;;
4084;SDS011;2057;50.858;6.572;2023-04-01T16:20:51;3.87;;;2.20;;
4084;SDS011;2057;50.858;6.572;2023-04-01T16:23:56;2.60;;;1.90;;
4084;SDS011;2057;50.858;6.572;2023-04-01T16:26:37;2.37;;;2.03;;
4084;SDS011;2057;50.858;6.572;2023-04-01T16:29:17;1.53;;;1.43;;
4084;SDS011;2057;50.858;6.572;2023-04-01T16:32:00;2.10;;;1.90;;
4084;SDS011;2057;50.858;6.572;2023-04-01T16:34:41;2.87;;;2.67;;
4084;SDS011;2057;50.858;6.572;2023-04-01T16:43:05;4.00;;;1.57;;
4084;SDS011;2057;50.858;6.572;2023-04-01T16:45:45;1.73;;;1.63;;
4084;SDS011;2057;50.858;6.572;2023-04-01T16:48:22;1.83;;;1.70;;
4084;SDS011;2057;50.858;6.572;2023-04-01T16:50:59;3.27;;;3.07;;
4084;SDS011;2057;50.858;6.572;2023-04-01T16:53:48;3.73;;;2.20;;
4084;SDS011;2057;50.858;6.572;2023-04-01T16:56:22;3.57;;;3.00;;
4084;SDS011;2057;50.858;6.572;2023-04-01T16:59:13;3.60;;;3.30;;
4084;SDS011;2057;50.858;6.572;2023-04-01T17:01:49;24.27;;;10.40;;
4084;SDS011;2057;50.858;6.572;2023-04-01T17:04:22;27.20;;;12.97;;
4084;SDS011;2057;50.858;6.572;2023-04-01T17:07:01;4.90;;;4.30;;
4084;SDS011;2057;50.858;6.572;2023-04-01T17:09:40;7.30;;;5.77;;
4084;SDS011;2057;50.858;6.572;2023-04-01T17:15:01;6.93;;;5.30;;
4084;SDS011;2057;50.858;6.572;2023-04-01T17:20:34;4.93;;;4.53;;
4084;SDS011;2057;50.858;6.572;2023-04-01T17:28:52;2.27;;;2.03;;
4084;SDS011;2057;50.858;6.572;2023-04-01T17:37:11;2.63;;;2.30;;
4084;SDS011;2057;50.858;6.572;2023-04-01T17:39:41;1.80;;;1.70;;
4084;SDS011;2057;50.858;6.572;2023-04-01T17:59:06;1.97;;;1.80;;
4084;SDS011;2057;50.858;6.572;2023-04-01T18:10:04;2.37;;;2.17;;
4084;SDS011;2057;50.858;6.572;2023-04-01T18:23:44;3.23;;;2.90;;
4084;SDS011;2057;50.858;6.572;2023-04-01T18:26:20;3.33;;;3.03;;
4084;SDS011;2057;50.858;6.572;2023-04-01T18:28:52;3.93;;;3.60;;
4084;SDS011;2057;50.858;6.572;2023-04-01T18:31:24;4.47;;;3.20;;
4084;SDS011;2057;50.858;6.572;2023-04-01T18:34:07;3.37;;;3.07;;
4084;SDS011;2057;50.858;6.572;2023-04-01T18:36:43;5.60;;;3.23;;
4084;SDS011;2057;50.858;6.572;2023-04-01T18:44:46;4.17;;;3.77;;
4084;SDS011;2057;50.858;6.572;2023-04-01T18:50:18;6.43;;;4.57;;
4084;SDS011;2057;50.858;6.572;2023-04-01T18:53:15;8.40;;;4.40;;
4084;SDS011;2057;50.858;6.572;2023-04-01T18:55:47;9.13;;;3.80;;
4084;SDS011;2057;50.858;6.572;2023-04-01T19:06:44;3.00;;;2.80;;
4084;SDS011;2057;50.858;6.572;2023-04-01T19:12:05;6.60;;;4.10;;
4084;SDS011;2057;50.858;6.572;2023-04-01T19:17:30;3.73;;;3.40;;
4084;SDS011;2057;50.858;6.572;2023-04-01T19:25:42;7.17;;;5.37;;
4084;SDS011;2057;50.858;6.572;2023-04-01T19:36:55;7.50;;;6.27;;
4084;SDS011;2057;50.858;6.572;2023-04-01T19:42:50;5.53;;;5.03;;
4084;SDS011;2057;50.858;6.572;2023-04-01T19:48:33;6.67;;;3.80;;
4084;SDS011;2057;50.858;6.572;2023-04-01T19:51:07;8.10;;;4.80;;
4084;SDS011;2057;50.858;6.572;2023-04-01T19:56:24;4.10;;;3.23;;
4084;SDS011;2057;50.858;6.572;2023-04-01T19:59:18;6.77;;;2.90;;
4084;SDS011;2057;50.858;6.572;2023-04-01T20:02:02;5.23;;;3.43;;
4084;SDS011;2057;50.858;6.572;2023-04-01T20:10:04;2.97;;;2.77;;
4084;SDS011;2057;50.858;6.572;2023-04-01T20:12:40;3.30;;;2.60;;
4084;SDS011;2057;50.858;6.572;2023-04-01T20:15:37;2.80;;;2.60;;
4084;SDS011;2057;50.858;6.572;2023-04-01T20:18:12;5.77;;;2.13;;
4084;SDS011;2057;50.858;6.572;2023-04-01T20:20:51;2.37;;;2.27;;
4084;SDS011;2057;50.858;6.572;2023-04-01T20:23:40;3.87;;;2.40;;
4084;SDS011;2057;50.858;6.572;2023-04-01T20:26:09;12.47;;;2.73;;
4084;SDS011;2057;50.858;6.572;2023-04-01T20:34:26;3.83;;;2.47;;
4084;SDS011;2057;50.858;6.572;2023-04-01T20:46:00;2.80;;;2.60;;
4084;SDS011;2057;50.858;6.572;2023-04-01T20:51:32;3.13;;;2.93;;
4084;SDS011;2057;50.858;6.572;2023-04-01T20:57:32;2.43;;;2.33;;
4084;SDS011;2057;50.858;6.572;2023-04-01T21:03:23;3.20;;;3.00;;
4084;SDS011;2057;50.858;6.572;2023-04-01T21:11:56;3.73;;;3.30;;
4084;SDS011;2057;50.858;6.572;2023-04-01T21:14:54;3.63;;;3.07;;
4084;SDS011;2057;50.858;6.572;2023-04-01T21:17:51;7.30;;;3.33;;
4084;SDS011;2057;50.858;6.572;2023-04-01T21:33:08;3.97;;;3.67;;
4084;SDS011;2057;50.858;6.572;2023-04-01T22:07:50;5.07;;;4.63;;
4084;SDS011;2057;50.858;6.572;2023-04-01T22:10:38;4.20;;;3.80;;
4084;SDS011;2057;50.858;6.572;2023-04-01T22:13:20;5.30;;;4.40;;
4084;SDS011;2057;50.858;6.572;2023-04-01T22:16:11;7.50;;;6.23;;
4084;SDS011;2057;50.858;6.572;2023-04-01T22:18:54;9.73;;;8.73;;
4084;SDS011;2057;50.858;6.572;2023-04-01T22:21:27;11.23;;;9.93;;
4084;SDS011;2057;50.858;6.572;2023-04-01T22:24:06;19.20;;;12.70;;
4084;SDS011;2057;50.858;6.572;2023-04-01T22:26:54;15.10;;;13.30;;
4084;SDS011;2057;50.858;6.572;2023-04-01T22:29:33;17.40;;;15.23;;
4084;SDS011;2057;50.858;6.572;2023-04-01T22:32:21;14.70;;;12.33;;
4084;SDS011;2057;50.858;6.572;2023-04-01T22:35:03;12.77;;;11.40;;
4084;SDS011;2057;50.858;6.572;2023-04-01T22:37:43;14.93;;;11.67;;
4084;SDS011;2057;50.858;6.572;2023-04-01T22:40:25;13.27;;;11.60;;
4084;SDS011;2057;50.858;6.572;2023-04-01T22:43:07;12.93;;;11.17;;
4084;SDS011;2057;50.858;6.572;2023-04-01T22:51:39;9.53;;;6.83;;
4084;SDS011;2057;50.858;6.572;2023-04-01T22:56:57;8.57;;;7.87;;
4084;SDS011;2057;50.858;6.572;2023-04-01T23:02:27;14.80;;;10.33;;
4084;SDS011;2057;50.858;6.572;2023-04-01T23:04:59;17.63;;;10.83;;
4084;SDS011;2057;50.858;6.572;2023-04-01T23:07:35;9.43;;;8.53;;
4084;SDS011;2057;50.858;6.572;2023-04-01T23:10:22;11.77;;;9.30;;
4084;SDS011;2057;50.858;6.572;2023-04-01T23:12:54;10.97;;;8.30;;
4084;SDS011;2057;50.858;6.572;2023-04-01T23:15:23;9.67;;;8.67;;
4084;SDS011;2057;50.858;6.572;2023-04-01T23:17:56;10.23;;;7.43;;
4084;SDS011;2057;50.858;6.572;2023-04-01T23:20:50;8.13;;;7.37;;
4084;SDS011;2057;50.858;6.572;2023-04-01T23:26:14;5.70;;;5.20;;
4084;SDS011;2057;50.858;6.572;2023-04-01T23:28:53;7.87;;;6.97;;
4084;SDS011;2057;50.858;6.572;2023-04-01T23:36:41;5.43;;;4.93;;
4084;SDS011;2057;50.858;6.572;2023-04-01T23:41:47;5.67;;;5.10;;
4084;SDS011;2057;50.858;6.572;2023-04-01T23:44:13;5.47;;;4.97;;
4084;SDS011;2057;50.858;6.572;2023-04-01T23:46:40;5.80;;;5.23;;
4084;SDS011;2057;50.858;6.572;2023-04-01T23:49:11;6.27;;;5.60;;
4084;SDS011;2057;50.858;6.572;2023-04-01T23:51:48;6.27;;;5.67;;
4084;SDS011;2057;50.858;6.572;2023-04-01T23:54:39;5.67;;;5.17;;
4084;SDS011;2057;50.858;6.572;2023-04-01T23:57:14;5.87;;;5.33;;
4084;SDS011;2057;50.858;6.572;2023-04-01T23:59:43;7.20;;;6.27;;
